Time;durP1;ratioP1;P1;durP2;ratioP2;P2;SDS_P1;SDS_P2;PMS_P1;PMS_P2;Temp;Humidity;BMP_temperature;BMP_pressure;BME280_temperature;BME280_humidity;BME280_pressure;Samples;Min_cycle;Max_cycle;Signal;HPM_P1;HPM_P2
2023/09/04 00:04:33;;;;;;;4.90;2.40;;;;;;;18.28;64.32;99834.25;221561;182;137417;-66
2023/09/04 00:09:39;;;;;;;5.80;2.90;;;;;;;18.27;64.27;99833.45;221935;182;146343;-67
2023/09/04 00:14:44;;;;;;;4.10;2.60;;;;;;;18.24;64.44;99834.09;221707;181;138983;-67
2023/09/04 00:19:48;;;;;;;4.80;2.70;;;;;;;18.20;64.40;99834.38;221817;181;136647;-67
2023/09/04 00:24:54;;;;;;;4.50;2.70;;;;;;;18.16;64.53;99831.24;221826;181;145375;-65
2023/09/04 00:29:59;;;;;;;6.30;2.50;;;;;;;18.11;64.46;99828.63;221857;181;138645;-66
2023/09/04 00:35:06;;;;;;;4.50;2.50;;;;;;;18.05;64.95;99834.69;221844;182;136920;-65
2023/09/04 00:40:10;;;;;;;6.80;2.80;;;;;;;18.00;65.16;99844.95;221987;181;145408;-66
2023/09/04 00:45:13;;;;;;;3.50;2.60;;;;;;;17.99;65.30;99852.80;221726;182;139621;-66
2023/09/04 00:50:24;;;;;;;4.60;2.60;;;;;;;17.96;65.75;99870.09;221775;181;137448;-65
2023/09/04 00:55:29;;;;;;;4.50;2.60;;;;;;;18.00;65.57;99866.33;221737;181;145764;-66
2023/09/04 01:00:37;;;;;;;4.10;2.50;;;;;;;18.06;65.48;99863.91;221904;179;140592;-66
2023/09/04 01:05:41;;;;;;;5.00;3.10;;;;;;;18.05;65.66;99865.06;221817;181;137833;-65
2023/09/04 01:10:50;;;;;;;3.50;2.90;;;;;;;18.00;65.79;99866.89;221848;181;146853;-64
2023/09/04 01:15:57;;;;;;;5.90;2.80;;;;;;;17.95;66.15;99871.92;221956;181;138979;-66
2023/09/04 01:21:04;;;;;;;4.10;2.40;;;;;;;17.91;66.31;99874.09;222038;181;136747;-65
2023/09/04 01:26:25;;;;;;;5.10;2.90;;;;;;;17.86;66.54;99866.02;221955;181;145892;-64
2023/09/04 01:31:35;;;;;;;5.80;2.80;;;;;;;17.82;66.84;99868.33;221975;178;138897;-65
2023/09/04 01:36:41;;;;;;;6.90;2.60;;;;;;;17.79;67.10;99871.58;222001;177;138198;-67
2023/09/04 01:41:45;;;;;;;9.70;2.70;;;;;;;17.77;67.24;99875.94;222043;181;145399;-70
2023/09/04 01:46:49;;;;;;;5.60;2.70;;;;;;;17.81;67.43;99873.84;221995;181;138688;-65
2023/09/04 01:51:58;;;;;;;4.90;2.60;;;;;;;17.85;67.42;99883.17;222181;181;137360;-67
2023/09/04 01:57:04;;;;;;;7.60;2.80;;;;;;;17.85;67.45;99890.64;222193;180;147871;-66
2023/09/04 02:02:09;;;;;;;5.50;2.50;;;;;;;17.86;67.65;99899.24;221914;181;139105;-66
2023/09/04 02:07:12;;;;;;;7.00;2.70;;;;;;;17.81;67.72;99901.21;222103;181;137015;-68
2023/09/04 02:12:17;;;;;;;7.00;3.10;;;;;;;17.74;67.93;99901.73;221934;181;145787;-68
2023/09/04 02:17:23;;;;;;;4.30;2.50;;;;;;;17.71;68.03;99905.70;222056;180;138710;-69
2023/09/04 02:22:27;;;;;;;7.80;2.80;;;;;;;17.66;68.07;99901.83;222216;180;136639;-71
2023/09/04 02:27:33;;;;;;;3.60;2.40;;;;;;;17.58;68.21;99899.55;222164;181;146740;-74
2023/09/04 02:32:38;;;;;;;6.40;2.60;;;;;;;17.56;68.01;99902.05;222126;182;139116;-71
2023/09/04 02:37:44;;;;;;;;;;;;;;;17.57;68.10;99896.77;222180;181;138241;-70
2023/09/04 02:42:49;;;;;;;5.60;2.30;;;;;;;17.57;68.13;99906.65;222034;180;145395;-65
2023/09/04 02:47:54;;;;;;;139.10;121.50;;;;;;;17.55;68.23;99913.30;221999;180;139042;-66
2023/09/04 02:52:59;;;;;;;119.20;95.10;;;;;;;17.57;68.49;99915.86;221978;181;137780;-64
2023/09/04 02:58:05;;;;;;;9.60;4.60;;;;;;;17.56;68.81;99910.70;222211;181;146033;-62
2023/09/04 03:03:12;;;;;;;21.90;16.30;;;;;;;17.53;68.60;99911.98;222210;181;139782;-66
2023/09/04 03:08:16;;;;;;;6.30;3.50;;;;;;;17.42;68.60;99910.17;222204;181;137708;-64
2023/09/04 03:13:22;;;;;;;;;;;;;;;17.36;68.86;99911.86;222028;181;146993;-64
2023/09/04 03:18:27;;;;;;;6.30;5.00;;;;;;;17.34;68.72;99923.36;222187;180;139273;-64
2023/09/04 03:23:34;;;;;;;5.90;2.60;;;;;;;17.37;68.61;99939.98;222265;181;138198;-66
2023/09/04 03:28:39;;;;;;;6.50;2.80;;;;;;;17.39;68.62;99943.76;222200;180;146807;-67
2023/09/04 03:33:44;;;;;;;3.00;2.20;;;;;;;17.44;68.50;99947.70;222078;181;138634;-68
2023/09/04 03:38:49;;;;;;;7.30;2.40;;;;;;;17.43;68.51;99945.60;222080;181;137413;-66
2023/09/04 03:43:55;;;;;;;7.60;2.40;;;;;;;17.41;68.52;99950.92;222035;181;145748;-68
2023/09/04 03:49:02;;;;;;;5.30;2.60;;;;;;;17.39;68.69;99953.61;222179;181;138659;-68
2023/09/04 03:54:05;;;;;;;4.60;2.60;;;;;;;17.35;68.74;99953.90;222236;180;137925;-63
2023/09/04 03:59:10;;;;;;;4.70;2.20;;;;;;;17.29;68.75;99955.45;222214;181;146747;-64
2023/09/04 04:04:16;;;;;;;12.40;9.10;;;;;;;17.21;69.00;99959.06;222226;181;140477;-63
2023/09/04 04:09:21;;;;;;;4.80;2.40;;;;;;;17.23;69.08;99971.08;222119;177;138752;-67
2023/09/04 04:14:27;;;;;;;6.00;2.60;;;;;;;17.26;68.86;99973.73;221906;181;146449;-66
2023/09/04 04:19:34;;;;;;;4.10;2.20;;;;;;;17.26;68.55;99985.77;221892;181;140238;-67
2023/09/04 04:24:38;;;;;;;4.60;2.30;;;;;;;17.26;68.43;99989.39;222029;181;137666;-65
2023/09/04 04:29:44;;;;;;;7.20;2.60;;;;;;;17.26;68.38;99998.86;222144;180;145741;-67
2023/09/04 04:34:49;;;;;;;3.90;2.40;;;;;;;17.22;68.32;99995.19;222125;181;138857;-66
2023/09/04 04:39:54;;;;;;;6.90;2.40;;;;;;;17.18;68.37;100004.14;222101;181;137535;-65
2023/09/04 04:44:58;;;;;;;4.80;2.50;;;;;;;17.15;68.44;100016.89;222042;180;145861;-66
2023/09/04 04:50:05;;;;;;;4.50;2.40;;;;;;;17.11;68.22;100017.77;222001;181;139031;-64
2023/09/04 04:55:09;;;;;;;8.40;2.70;;;;;;;17.07;68.17;100021.48;221868;181;136906;-63
2023/09/04 05:00:15;;;;;;;9.80;5.20;;;;;;;17.01;68.14;100025.08;222263;181;145889;-67
2023/09/04 05:05:19;;;;;;;4.70;2.30;;;;;;;17.00;68.27;100041.34;221924;181;139420;-69
2023/09/04 05:10:24;;;;;;;;;;;;;;;16.99;68.24;100050.88;222152;181;138097;-71
2023/09/04 05:15:31;;;;;;;4.70;2.90;;;;;;;17.00;68.37;100049.20;222158;180;146986;-69
2023/09/04 05:20:37;;;;;;;7.80;2.60;;;;;;;17.02;68.29;100056.05;221944;177;138989;-64
2023/09/04 05:25:53;;;;;;;7.00;3.70;;;;;;;17.02;68.50;100055.33;221938;181;137448;-65
2023/09/04 05:31:05;;;;;;;5.30;2.40;;;;;;;17.07;68.25;100057.31;221911;181;146375;-67
2023/09/04 05:36:10;;;;;;;6.40;2.30;;;;;;;17.06;68.00;100060.63;222252;181;138636;-67
2023/09/04 05:41:16;;;;;;;6.30;2.80;;;;;;;17.02;67.87;100065.41;222258;181;137604;-66
2023/09/04 05:46:21;;;;;;;6.90;2.70;;;;;;;16.97;68.00;100071.46;222230;181;145557;-66
2023/09/04 05:51:25;;;;;;;10.60;3.20;;;;;;;16.94;68.07;100080.12;222121;181;139862;-67
2023/09/04 05:56:29;;;;;;;5.70;2.40;;;;;;;16.87;68.08;100072.24;222054;181;137549;-63
2023/09/04 06:01:34;;;;;;;8.00;2.90;;;;;;;16.80;68.45;100071.83;222237;180;145715;-64
2023/09/04 06:06:39;;;;;;;4.20;2.60;;;;;;;16.81;68.77;100074.06;221942;181;139375;-64
2023/09/04 06:11:44;;;;;;;8.00;3.40;;;;;;;16.86;68.85;100073.35;222127;179;140304;-65
2023/09/04 06:16:48;;;;;;;9.30;4.40;;;;;;;16.88;68.86;100073.91;222200;181;145831;-67
2023/09/04 06:21:55;;;;;;;11.00;3.90;;;;;;;16.90;69.13;100069.14;222293;181;138927;-66
2023/09/04 06:26:59;;;;;;;7.60;4.20;;;;;;;16.94;69.45;100076.39;222155;180;138319;-63
2023/09/04 06:32:06;;;;;;;8.80;4.10;;;;;;;16.96;69.38;100079.09;222060;181;148257;-62
2023/09/04 06:37:10;;;;;;;7.30;4.10;;;;;;;17.00;69.43;100079.83;221952;181;139037;-65
2023/09/04 06:42:14;;;;;;;11.10;3.70;;;;;;;17.05;69.35;100076.33;222275;180;138260;-65
2023/09/04 06:47:18;;;;;;;8.50;3.70;;;;;;;17.13;69.12;100078.17;222043;181;148242;-67
2023/09/04 06:52:23;;;;;;;6.80;3.80;;;;;;;17.31;69.18;100079.08;222014;181;139031;-66
2023/09/04 06:57:29;;;;;;;6.80;3.10;;;;;;;17.39;68.53;100077.77;222161;180;136955;-65
2023/09/04 07:02:34;;;;;;;8.20;3.30;;;;;;;17.37;68.23;100082.40;222069;181;147220;-65
2023/09/04 07:07:39;;;;;;;9.00;3.20;;;;;;;17.43;68.30;100088.23;222023;181;139194;-64
2023/09/04 07:12:44;;;;;;;;;;;;;;;17.58;67.89;100089.96;222128;181;138548;-66
2023/09/04 07:17:49;;;;;;;9.30;3.90;;;;;;;17.65;67.41;100095.16;222194;181;147525;-64
2023/09/04 07:22:53;;;;;;;9.80;3.20;;;;;;;17.74;67.63;100092.16;222096;181;139074;-66
2023/09/04 07:28:14;;;;;;;11.00;3.70;;;;;;;17.83;67.22;100107.52;221971;181;137311;-65
2023/09/04 07:33:18;;;;;;;8.00;3.80;;;;;;;17.87;67.05;100116.36;221989;181;147669;-66
2023/09/04 07:38:23;;;;;;;59.90;35.70;;;;;;;17.90;67.14;100124.21;222168;181;139725;-64
2023/09/04 07:43:30;;;;;;;8.60;3.40;;;;;;;17.96;66.68;100118.78;222062;181;138665;-65
2023/09/04 07:48:34;;;;;;;7.50;3.20;;;;;;;18.01;66.51;100117.70;222086;181;147596;-66
2023/09/04 07:53:39;;;;;;;10.60;3.40;;;;;;;18.02;66.47;100123.33;222084;181;139058;-65
2023/09/04 07:58:44;;;;;;;6.10;2.70;;;;;;;18.12;66.75;100125.23;222140;180;138579;-64
2023/09/04 08:03:49;;;;;;;7.90;3.00;;;;;;;18.25;66.60;100126.97;222116;181;148746;-65
2023/09/04 08:08:55;;;;;;;7.30;3.80;;;;;;;18.38;66.49;100133.70;222141;181;138912;-67
2023/09/04 08:14:01;;;;;;;7.80;3.50;;;;;;;18.50;66.30;100132.63;222150;181;138252;-67
2023/09/04 08:19:05;;;;;;;6.70;3.30;;;;;;;18.56;66.23;100130.54;222078;180;147833;-65
2023/09/04 08:24:12;;;;;;;10.60;3.20;;;;;;;18.62;66.10;100123.71;221989;180;140292;-65
2023/09/04 08:29:17;;;;;;;13.70;5.90;;;;;;;18.70;65.81;100118.62;222127;181;138088;-65
2023/09/04 08:34:21;;;;;;;10.20;3.50;;;;;;;18.75;65.55;100122.95;222155;181;147575;-65
2023/09/04 08:39:26;;;;;;;9.90;3.40;;;;;;;18.73;65.50;100114.27;221928;181;138856;-65
2023/09/04 08:44:31;;;;;;;7.20;2.90;;;;;;;18.85;65.90;100110.09;221945;181;137750;-63
2023/09/04 08:49:37;;;;;;;7.90;2.90;;;;;;;19.01;65.67;100111.38;222042;181;147924;-66
2023/09/04 08:54:42;;;;;;;10.00;2.70;;;;;;;19.19;65.32;100111.73;221932;181;139394;-65
2023/09/04 08:59:46;;;;;;;6.60;3.00;;;;;;;19.38;64.89;100119.15;222233;181;138227;-64
2023/09/04 09:04:54;;;;;;;7.60;3.20;;;;;;;19.50;64.48;100118.68;221899;181;148063;-65
2023/09/04 09:10:04;;;;;;;6.40;2.60;;;;;;;19.64;64.28;100114.02;221962;181;139056;-66
2023/09/04 09:15:09;;;;;;;16.40;8.50;;;;;;;19.68;63.75;100110.45;221882;180;137507;-64
2023/09/04 09:20:28;;;;;;;;;;;;;;;19.65;63.63;100110.14;221970;181;149527;-64
2023/09/04 09:25:34;;;;;;;6.20;3.20;;;;;;;19.59;63.72;100105.76;222023;181;138894;-65
2023/09/04 09:30:39;;;;;;;4.50;2.70;;;;;;;19.61;63.79;100101.05;222153;181;137676;-62
2023/09/04 09:35:44;;;;;;;9.30;3.10;;;;;;;19.67;63.80;100098.62;222008;177;148049;-64
2023/09/04 09:40:49;;;;;;;;;;;;;;;19.84;63.51;100098.86;222231;181;138873;-65
2023/09/04 09:45:55;;;;;;;5.40;2.30;;;;;;;19.93;63.01;100104.21;221913;180;132980;-64
2023/09/04 09:51:00;;;;;;;4.90;2.30;;;;;;;20.08;62.20;100113.71;221912;181;148148;-65
2023/09/04 09:56:05;;;;;;;5.90;3.30;;;;;;;20.18;62.01;100123.88;222140;179;138874;-64
2023/09/04 10:01:09;;;;;;;13.00;3.70;;;;;;;19.99;62.41;100127.81;221992;181;138537;-64
2023/09/04 10:06:29;;;;;;;8.60;3.50;;;;;;;19.82;63.01;100129.27;222121;181;147685;-64
2023/09/04 10:11:43;;;;;;;6.40;3.40;;;;;;;19.72;63.27;100121.63;221907;181;139214;-64
2023/09/04 10:17:00;;;;;;;6.80;3.40;;;;;;;19.67;63.35;100118.62;221984;181;139440;-63
2023/09/04 10:22:15;;;;;;;15.80;3.60;;;;;;;19.76;63.93;100112.44;221913;181;150269;-63
2023/09/04 10:27:22;;;;;;;;;;;;;;;19.97;63.63;100100.41;222142;181;138727;-64
2023/09/04 10:32:30;;;;;;;6.90;3.50;;;;;;;20.08;63.44;100091.25;222094;181;133006;-64
2023/09/04 10:37:37;;;;;;;9.70;3.80;;;;;;;20.27;63.15;100088.91;221979;181;149253;-64
2023/09/04 10:42:43;;;;;;;5.50;3.00;;;;;;;20.75;62.99;100084.38;221953;181;139462;-65
2023/09/04 10:47:51;;;;;;;6.50;2.80;;;;;;;21.27;61.46;100075.42;222067;182;137517;-63
2023/09/04 10:52:58;;;;;;;13.20;6.70;;;;;;;21.48;60.00;100078.42;221926;181;147973;-61
2023/09/04 10:58:07;;;;;;;6.40;3.00;;;;;;;21.55;59.53;100070.91;221951;181;138879;-60
2023/09/04 11:03:29;;;;;;;7.10;3.90;;;;;;;21.49;59.36;100071.66;222015;181;137976;-62
2023/09/04 11:08:35;;;;;;;5.10;2.80;;;;;;;21.40;59.17;100071.57;222256;181;148078;-66
2023/09/04 11:13:43;;;;;;;5.10;2.70;;;;;;;21.27;59.45;100069.48;221863;181;139139;-66
2023/09/04 11:19:00;;;;;;;5.50;2.90;;;;;;;21.24;59.63;100071.35;221941;181;137293;-62
2023/09/04 11:24:06;;;;;;;5.10;3.10;;;;;;;21.66;58.96;100068.45;221876;181;147617;-61
2023/09/04 11:29:10;;;;;;;5.50;2.80;;;;;;;22.05;57.53;100062.70;222035;182;138873;-63
2023/09/04 11:34:22;;;;;;;7.50;3.40;;;;;;;22.49;57.98;100063.29;222216;181;138208;-61
2023/09/04 11:39:26;;;;;;;8.50;3.70;;;;;;;22.97;57.55;100061.78;222158;181;147317;-60
2023/09/04 11:44:31;;;;;;;10.70;5.30;;;;;;;23.21;57.53;100059.44;222128;181;138886;-63
2023/09/04 11:49:35;;;;;;;9.20;4.90;;;;;;;23.02;57.45;100065.39;222106;181;137182;-63
2023/09/04 11:54:41;;;;;;;4.70;3.00;;;;;;;22.83;57.63;100066.50;222005;181;148180;-62
2023/09/04 11:59:45;;;;;;;8.00;3.80;;;;;;;22.76;56.30;100070.64;222064;181;138647;-61
2023/09/04 12:04:52;;;;;;;7.50;3.90;;;;;;;23.12;57.07;100064.74;221989;181;138846;-60
2023/09/04 12:09:58;;;;;;;6.30;3.40;;;;;;;23.56;55.70;100055.74;222162;181;147578;-62
2023/09/04 12:15:05;;;;;;;6.60;3.60;;;;;;;24.02;52.50;100045.09;222029;181;139816;-59
2023/09/04 12:20:15;;;;;;;6.00;3.90;;;;;;;24.41;51.63;100036.61;222051;181;140761;-62
2023/09/04 12:25:21;;;;;;;6.60;4.00;;;;;;;24.68;51.08;100031.41;222082;181;147876;-62
2023/09/04 12:30:26;;;;;;;5.60;3.70;;;;;;;24.95;50.43;100034.67;222181;180;139431;-62
2023/09/04 12:35:32;;;;;;;6.20;4.00;;;;;;;25.08;49.41;100032.94;222022;181;137484;-60
2023/09/04 12:40:39;;;;;;;8.80;4.40;;;;;;;24.93;48.59;100022.16;222123;181;148101;-60
2023/09/04 12:45:43;;;;;;;6.40;3.90;;;;;;;24.55;48.62;100030.21;222027;181;138703;-61
2023/09/04 12:50:49;;;;;;;6.30;3.30;;;;;;;24.62;47.71;100028.20;222019;181;137432;-61
2023/09/04 12:55:53;;;;;;;5.20;3.20;;;;;;;24.73;48.02;100027.55;222056;180;149383;-61
2023/09/04 13:00:58;;;;;;;7.00;3.80;;;;;;;25.08;48.43;100023.66;222061;180;139275;-61
2023/09/04 13:06:01;;;;;;;;;;;;;;;25.38;46.55;100016.84;222323;181;137047;-61
2023/09/04 13:11:07;;;;;;;7.40;3.30;;;;;;;25.56;45.83;100010.00;222055;181;148215;-61
2023/09/04 13:16:11;;;;;;;5.90;3.50;;;;;;;25.90;45.78;100004.42;221891;181;139365;-61
2023/09/04 13:21:15;;;;;;;;;;;;;;;26.20;45.10;100000.22;222230;181;138116;-61
2023/09/04 13:26:21;;;;;;;6.60;3.80;;;;;;;26.38;44.28;100000.47;222166;177;147597;-61
2023/09/04 13:31:25;;;;;;;4.60;3.70;;;;;;;26.22;44.22;99988.38;222330;180;138691;-61
2023/09/04 13:36:32;;;;;;;7.00;3.70;;;;;;;25.97;43.93;99986.62;222133;181;137318;-60
2023/09/04 13:41:36;;;;;;;4.30;3.40;;;;;;;25.67;44.29;99993.11;222006;181;147578;-60
2023/09/04 13:46:41;;;;;;;5.80;3.70;;;;;;;25.93;44.37;99989.94;222094;179;140307;-60
2023/09/04 13:51:45;;;;;;;4.60;3.40;;;;;;;26.13;43.75;99987.98;222028;181;137783;-60
2023/09/04 13:56:51;;;;;;;5.80;3.50;;;;;;;26.28;43.10;99981.20;222101;181;148425;-62
2023/09/04 14:01:58;;;;;;;4.00;3.30;;;;;;;26.44;42.58;99971.08;222168;181;139021;-61
2023/09/04 14:07:03;;;;;;;4.20;3.50;;;;;;;26.42;41.56;99966.08;222209;180;138151;-60
2023/09/04 14:12:09;;;;;;;4.20;3.30;;;;;;;25.95;41.56;99971.27;222138;181;147527;-62
2023/09/04 14:17:13;;;;;;;6.00;3.50;;;;;;;25.37;42.45;99971.52;222029;181;139558;-63
2023/09/04 14:22:19;;;;;;;4.80;3.70;;;;;;;24.92;43.07;99972.74;222218;181;137204;-62
2023/09/04 14:27:24;;;;;;;6.30;4.00;;;;;;;24.58;43.52;99973.85;222250;181;147695;-61
2023/09/04 14:32:29;;;;;;;6.00;3.40;;;;;;;24.32;43.98;99974.20;222157;181;138908;-62
2023/09/04 14:37:35;;;;;;;6.80;3.40;;;;;;;23.95;44.38;99981.84;222114;181;137983;-62
2023/09/04 14:42:39;;;;;;;8.00;3.20;;;;;;;23.66;45.08;99980.44;222191;181;149148;-62
2023/09/04 14:47:44;;;;;;;4.30;3.70;;;;;;;23.45;45.98;99982.25;222202;181;139222;-60
2023/09/04 14:52:51;;;;;;;5.80;3.50;;;;;;;23.27;45.95;99986.31;222166;181;137178;-61
2023/09/04 14:57:56;;;;;;;6.00;3.90;;;;;;;23.19;46.16;99988.80;222164;180;147726;-63
2023/09/04 15:03:01;;;;;;;6.20;3.80;;;;;;;23.13;46.35;99991.05;222294;181;138947;-61
2023/09/04 15:08:06;;;;;;;7.60;3.80;;;;;;;23.00;46.54;99987.42;222216;180;138234;-62
2023/09/04 15:13:11;;;;;;;10.50;3.60;;;;;;;22.91;46.95;99987.86;222163;181;149368;-62
2023/09/04 15:18:16;;;;;;;6.80;3.50;;;;;;;22.85;47.15;99991.38;222043;181;140057;-64
2023/09/04 15:23:23;;;;;;;6.40;3.50;;;;;;;22.78;47.15;99990.09;222146;181;138059;-61
2023/09/04 15:28:31;;;;;;;9.90;3.30;;;;;;;22.75;47.48;99986.29;222020;181;148236;-60
2023/09/04 15:33:36;;;;;;;49.10;43.60;;;;;;;22.71;47.40;99992.79;221914;181;139490;-62
2023/09/04 15:38:40;;;;;;;9.00;4.80;;;;;;;22.63;47.85;99995.10;222109;181;138367;-62
2023/09/04 15:43:44;;;;;;;8.70;3.30;;;;;;;22.58;47.81;99993.43;222069;177;149137;-61
2023/09/04 15:48:48;;;;;;;7.90;3.00;;;;;;;22.54;48.09;99993.02;222238;181;138608;-61
2023/09/04 15:53:53;;;;;;;;;;;;;;;22.52;48.06;99990.50;222299;181;137161;-62
2023/09/04 15:58:57;;;;;;;6.70;2.80;;;;;;;22.48;48.32;99991.82;222098;180;148243;-62
2023/09/04 16:04:02;;;;;;;4.90;2.70;;;;;;;22.44;48.44;99996.41;222118;181;142343;-62
2023/09/04 16:09:05;;;;;;;10.90;7.70;;;;;;;22.40;48.56;100002.77;222183;180;138228;-61
2023/09/04 16:14:09;;;;;;;8.60;3.90;;;;;;;22.40;48.79;100006.77;222096;181;148069;-61
2023/09/04 16:20:00;;;;;;;5.70;3.30;;;;;;;22.43;50.57;100011.36;231399;225;723542;-60
2023/09/04 16:25:07;;;;;;;17.80;15.00;;;;;;;22.41;51.53;100012.61;232355;219;137664;-61
2023/09/04 16:30:11;;;;;;;77.90;65.60;;;;;;;22.29;49.12;100015.98;232491;219;144443;-63
2023/09/04 16:35:17;;;;;;;23.50;21.10;;;;;;;22.15;48.79;100017.09;233001;216;139343;-65
2023/09/04 16:40:21;;;;;;;;;;;;;;;22.00;49.07;100020.66;232959;216;140711;-61
2023/09/04 16:45:26;;;;;;;146.20;117.40;;;;;;;21.90;50.38;100021.21;233023;215;145100;-61
2023/09/04 16:50:33;;;;;;;15.10;9.50;;;;;;;21.92;53.21;100024.66;233004;216;138926;-62
2023/09/04 16:55:37;;;;;;;9.40;4.80;;;;;;;21.93;52.32;100035.27;232979;216;140065;-61
2023/09/04 17:00:42;;;;;;;13.20;4.30;;;;;;;21.80;51.43;100031.97;233033;216;145769;-63
2023/09/04 17:05:47;;;;;;;93.80;83.80;;;;;;;21.69;51.15;100027.38;233023;216;139734;-61
2023/09/04 17:10:53;;;;;;;;;;;;;;;21.54;51.39;100026.94;232948;216;138011;-61
2023/09/04 17:15:58;;;;;;;;;;;;;;;21.37;51.06;100032.14;233042;216;145790;-61
2023/09/04 17:21:03;;;;;;;148.20;103.00;;;;;;;21.20;51.57;100043.02;232966;216;141281;-61
2023/09/04 17:26:07;;;;;;;71.60;52.70;;;;;;;21.15;52.84;100041.91;233003;216;139064;-62
2023/09/04 17:31:11;;;;;;;13.30;4.50;;;;;;;21.13;52.40;100046.34;232919;216;145471;-63
2023/09/04 17:36:15;;;;;;;18.50;8.40;;;;;;;20.92;52.16;100048.82;233021;216;140096;-63
2023/09/04 17:41:21;;;;;;;24.20;14.60;;;;;;;20.73;53.21;100052.84;232907;216;137219;-62
2023/09/04 17:46:27;;;;;;;239.80;171.60;;;;;;;20.56;53.89;100046.36;232942;216;145589;-61
2023/09/04 17:51:34;;;;;;;167.30;134.50;;;;;;;20.58;54.73;100044.73;232863;216;141234;-62
2023/09/04 17:56:38;;;;;;;16.70;8.80;;;;;;;20.65;55.83;100049.27;232901;216;137622;-62
2023/09/04 18:01:45;;;;;;;20.80;11.70;;;;;;;20.61;54.75;100054.06;232842;216;145712;-64
2023/09/04 18:06:51;;;;;;;21.10;12.10;;;;;;;20.52;54.43;100052.48;233049;216;138695;-64
2023/09/04 18:11:56;;;;;;;11.50;6.70;;;;;;;20.29;54.60;100062.92;232866;216;137118;-62
2023/09/04 18:17:01;;;;;;;;;;;;;;;20.03;55.24;100068.02;232786;216;146290;-61
2023/09/04 18:22:06;;;;;;;8.40;3.80;;;;;;;19.81;55.79;100072.05;232930;216;138863;-62
2023/09/04 18:27:12;;;;;;;9.90;3.70;;;;;;;19.62;56.36;100069.64;232966;216;136919;-64
2023/09/04 18:32:18;;;;;;;11.20;4.10;;;;;;;19.49;57.17;100079.02;232904;216;145767;-63
2023/09/04 18:37:23;;;;;;;;;;;;;;;19.36;57.73;100074.52;232857;216;140844;-63
2023/09/04 18:42:28;;;;;;;;;;;;;;;19.30;58.24;100086.00;233054;216;131099;-63
2023/09/04 18:47:33;;;;;;;14.10;5.40;;;;;;;19.24;58.70;100085.42;233003;216;145918;-63
2023/09/04 18:52:38;;;;;;;51.70;37.20;;;;;;;19.16;59.36;100089.09;232902;216;138913;-62
2023/09/04 18:57:43;;;;;;;18.10;8.50;;;;;;;19.14;60.09;100095.57;232864;216;137837;-62
2023/09/04 19:02:47;;;;;;;12.70;5.70;;;;;;;19.10;60.78;100106.45;232871;216;146085;-61
2023/09/04 19:07:52;;;;;;;15.60;4.70;;;;;;;18.97;60.95;100107.40;232892;216;140534;-59
2023/09/04 19:12:57;;;;;;;24.20;5.70;;;;;;;18.79;61.52;100108.64;233106;216;137180;-62
2023/09/04 19:18:02;;;;;;;21.90;5.90;;;;;;;18.66;62.22;100107.77;232910;216;145252;-61
2023/09/04 19:23:06;;;;;;;17.70;4.90;;;;;;;18.51;62.49;100107.94;232915;216;139075;-63
2023/09/04 19:28:12;;;;;;;13.50;5.80;;;;;;;18.38;62.98;100113.19;232938;216;137709;-61
2023/09/04 19:33:18;;;;;;;19.70;13.20;;;;;;;18.31;63.58;100110.20;232937;216;145612;-61
2023/09/04 19:38:22;;;;;;;16.00;6.50;;;;;;;18.31;63.73;100109.63;232869;216;139019;-63
2023/09/04 19:43:27;;;;;;;13.10;5.70;;;;;;;18.20;63.89;100118.58;233013;216;138174;-62
2023/09/04 19:48:32;;;;;;;16.00;6.30;;;;;;;18.07;64.01;100118.10;233023;216;146531;-63
2023/09/04 19:53:36;;;;;;;12.20;5.90;;;;;;;17.99;64.14;100114.99;232886;216;138938;-64
2023/09/04 19:58:41;;;;;;;9.70;6.10;;;;;;;17.91;64.33;100120.19;232916;216;137888;-62
2023/09/04 20:03:46;;;;;;;9.50;5.50;;;;;;;17.85;64.49;100116.52;232950;216;146636;-61
2023/09/04 20:08:52;;;;;;;10.10;5.00;;;;;;;17.83;64.53;100123.00;232906;216;139333;-63
2023/09/04 20:13:58;;;;;;;9.90;5.40;;;;;;;17.85;64.37;100124.83;232943;216;137668;-63
2023/09/04 20:19:04;;;;;;;9.40;5.00;;;;;;;17.89;64.19;100122.14;233018;216;146958;-60
2023/09/04 20:24:09;;;;;;;10.00;5.00;;;;;;;17.89;64.13;100129.31;232899;216;139680;-61
2023/09/04 20:29:15;;;;;;;7.50;5.30;;;;;;;17.87;64.23;100126.98;232972;216;136926;-62
2023/09/04 20:34:20;;;;;;;;;;;;;;;17.87;63.84;100125.54;232878;216;146287;-62
2023/09/04 20:39:25;;;;;;;12.30;5.20;;;;;;;17.87;63.88;100127.70;232981;216;139797;-63
2023/09/04 20:44:29;;;;;;;9.30;5.10;;;;;;;17.82;64.18;100123.60;232962;216;137219;-62
2023/09/04 20:49:39;;;;;;;8.60;4.90;;;;;;;17.77;64.19;100131.86;232896;217;145570;-59
2023/09/04 20:54:45;;;;;;;8.20;4.70;;;;;;;17.71;64.14;100134.98;232910;215;138889;-62
2023/09/04 20:59:51;;;;;;;8.20;4.60;;;;;;;17.72;64.09;100129.27;232711;214;137268;-62
2023/09/04 21:04:56;;;;;;;8.90;4.30;;;;;;;17.74;63.80;100135.77;232750;214;145785;-61
2023/09/04 23:26:09;;;;;;;8.00;4.60;;;;;;;16.28;68.87;100141.47;232710;215;137966;-59
2023/09/04 23:31:18;;;;;;;8.20;4.60;;;;;;;16.31;68.99;100144.17;232923;214;146114;-64
2023/09/04 23:47:05;;;;;;;9.10;4.90;;;;;;;16.15;69.46;100142.58;232692;214;148957;-65
2023/09/04 23:52:09;;;;;;;9.40;4.90;;;;;;;16.08;69.82;100145.15;232761;215;138833;-65
2023/09/04 23:57:14;;;;;;;;;;;;;;;16.02;70.04;100141.15;232651;214;138953;-65
